createdAt,value
2024-02-02T00:00:03.620Z,214.39000000000001
2024-02-02T00:05:02.964Z,1869.6580000000001
2024-02-02T00:10:03.050Z,2034.204
2024-02-02T00:15:02.909Z,2616.827
2024-02-02T00:20:03.026Z,2446.661
2024-02-02T00:25:02.816Z,2542.089
2024-02-02T00:30:02.890Z,2562.571
2024-02-02T00:35:02.804Z,1092.277
2024-02-02T00:40:01.389Z,198.845
2024-02-02T00:45:01.366Z,189.757
2024-02-02T00:50:01.626Z,205.538
2024-02-02T00:55:01.289Z,221.442
2024-02-02T01:00:01.402Z,227.181
2024-02-02T01:05:01.450Z,390.365
2024-02-02T01:10:01.413Z,2521.578
2024-02-02T01:15:01.387Z,2515.704
2024-02-02T01:20:01.344Z,2530.215
2024-02-02T01:25:01.365Z,2546.978
2024-02-02T01:30:01.338Z,2306.791
2024-02-02T01:35:01.432Z,646.218
2024-02-02T01:40:01.391Z,2206.018
2024-02-02T01:45:01.348Z,2666.317
2024-02-02T01:50:01.412Z,194.547
2024-02-02T01:55:01.393Z,286.323
2024-02-02T02:00:01.548Z,429.764
2024-02-02T02:05:01.392Z,782.119
2024-02-02T02:10:01.672Z,2501.4030000000002
2024-02-02T02:15:01.610Z,2482.616
2024-02-02T02:20:01.545Z,2434.965
2024-02-02T02:25:01.419Z,2463.42
2024-02-02T02:30:01.410Z,917.913
2024-02-02T02:35:01.475Z,218.56900000000002
2024-02-02T02:40:01.578Z,227.27100000000002
2024-02-02T02:45:01.538Z,244.418
2024-02-02T02:50:01.534Z,588.528
2024-02-02T02:55:01.544Z,337.603
2024-02-02T03:00:01.544Z,798.47
2024-02-02T03:05:01.521Z,2404.159
2024-02-02T03:10:01.606Z,2393.016
2024-02-02T03:15:01.676Z,2417.742
2024-02-02T03:20:01.625Z,2453.177
2024-02-02T03:25:01.416Z,1772.017
2024-02-02T03:30:01.588Z,211.668
2024-02-02T03:35:01.406Z,191.25300000000001
2024-02-02T03:40:01.632Z,605.287
2024-02-02T03:45:01.494Z,307.20300000000003
2024-02-02T03:50:01.411Z,302.951
2024-02-02T03:55:01.393Z,224.88
2024-02-02T04:00:01.438Z,949.034
2024-02-02T04:05:01.456Z,2313.181
2024-02-02T04:10:01.496Z,2361.4410000000003
2024-02-02T04:15:01.476Z,2406.454
2024-02-02T04:20:01.477Z,2449.57
2024-02-02T04:25:01.411Z,2496.917
2024-02-02T04:30:01.486Z,3221.6240000000003
2024-02-02T04:35:01.574Z,1571.138
2024-02-02T04:40:01.742Z,332.884
2024-02-02T04:45:01.595Z,229.9
2024-02-02T04:50:01.450Z,214.537
2024-02-02T04:55:01.473Z,213.639
2024-02-02T05:00:01.562Z,213.278
2024-02-02T05:05:01.479Z,188.369
2024-02-02T05:10:01.554Z,188.681
2024-02-02T05:15:01.513Z,417.63800000000003
2024-02-02T05:20:01.508Z,2673.466
2024-02-02T05:25:01.534Z,2508.482
2024-02-02T05:30:01.559Z,2465.896
2024-02-02T05:35:01.568Z,2203.5370000000003
2024-02-02T05:40:01.587Z,2275.977
2024-02-02T05:45:01.705Z,1211.4750000000001
2024-02-02T05:50:01.578Z,238.791
2024-02-02T05:55:01.508Z,239.025
2024-02-02T06:00:01.527Z,245.108
2024-02-02T06:05:01.638Z,302.361
2024-02-02T06:10:01.590Z,591.197
2024-02-02T06:15:01.548Z,526.347
2024-02-02T06:20:01.657Z,3710.097
2024-02-02T06:25:01.712Z,2666.837
2024-02-02T06:30:01.656Z,2641.443
2024-02-02T06:35:01.817Z,2697.228
2024-02-02T06:40:01.656Z,2913.71
2024-02-02T06:45:01.699Z,2168.614
2024-02-02T06:50:01.610Z,520.422
2024-02-02T06:55:01.540Z,588.817
2024-02-02T07:00:01.725Z,768.389
2024-02-02T07:05:01.601Z,749.546
2024-02-02T07:10:01.682Z,838.6850000000001
2024-02-02T07:15:01.695Z,354.695
2024-02-02T07:20:01.772Z,1916.488
2024-02-02T07:25:01.720Z,2509.842
2024-02-02T07:30:01.748Z,2530.387
2024-02-02T07:35:01.743Z,2565.326
2024-02-02T07:40:01.780Z,2202.202
2024-02-02T07:45:01.798Z,3114.768
2024-02-02T07:50:01.773Z,522.3340000000001
2024-02-02T07:55:01.676Z,723.424
2024-02-02T08:00:01.755Z,392.971
2024-02-02T08:05:01.785Z,379.437
2024-02-02T08:10:01.867Z,1012.267
2024-02-02T08:15:01.781Z,374.181
2024-02-02T08:20:01.819Z,1123.561
2024-02-02T08:25:01.795Z,3522.618
2024-02-02T08:30:01.874Z,2850.2490000000003
2024-02-02T08:35:01.832Z,2751.367
2024-02-02T08:40:01.904Z,1332.536
2024-02-02T08:45:01.910Z,773.95
2024-02-02T08:50:01.891Z,387.359
2024-02-02T08:55:01.898Z,495.384
2024-02-02T09:00:01.903Z,405.272
2024-02-02T09:05:01.856Z,406.377
2024-02-02T09:10:02.078Z,406.986
2024-02-02T09:15:01.963Z,409.49
2024-02-02T09:20:02.005Z,2619.839
2024-02-02T09:25:01.654Z,2746.436
2024-02-02T09:30:01.786Z,2746.31
2024-02-02T09:35:01.684Z,3088.742
2024-02-02T09:40:01.805Z,3000.239
2024-02-02T09:45:01.848Z,415.26800000000003
2024-02-02T09:50:01.811Z,411.764
2024-02-02T09:55:01.781Z,414.532
2024-02-02T10:00:01.741Z,415.105
2024-02-02T10:05:01.700Z,405.67900000000003
2024-02-02T10:10:02.010Z,513.313
2024-02-02T10:15:04.339Z,524.5840000000001
2024-02-02T10:20:01.762Z,516.458
2024-02-02T10:25:01.823Z,1850.173
2024-02-02T10:30:01.812Z,2542.43
2024-02-02T10:35:01.813Z,2570.012
2024-02-02T10:40:01.861Z,2601.0190000000002
2024-02-02T10:45:01.877Z,2642.618
2024-02-02T10:50:01.946Z,697.029
2024-02-02T10:55:01.755Z,442.85
2024-02-02T11:00:01.935Z,523.663
2024-02-02T11:05:01.796Z,494.652
2024-02-02T11:10:01.915Z,488.031
2024-02-02T11:15:01.898Z,713.225
2024-02-02T11:20:01.809Z,375.301
2024-02-02T11:25:01.791Z,367.492
2024-02-02T11:30:01.858Z,2149.044
2024-02-02T11:35:01.795Z,2586.804
2024-02-02T11:40:01.864Z,2428.881
2024-02-02T11:45:01.807Z,2465.407
2024-02-02T11:50:01.849Z,2903.4990000000003
2024-02-02T11:55:01.931Z,1128.796
2024-02-02T12:00:01.965Z,268.326
2024-02-02T12:05:01.926Z,466.769
2024-02-02T12:10:01.892Z,233.928
2024-02-02T12:15:01.907Z,188.577
2024-02-02T12:20:01.960Z,212.754
2024-02-02T12:25:01.881Z,214.002
2024-02-02T12:30:01.911Z,746.753
2024-02-02T12:35:01.977Z,2247.693
2024-02-02T12:40:02.087Z,2554.727
2024-02-02T12:45:02.020Z,2541.155
2024-02-02T12:50:01.974Z,2520.7200000000003
2024-02-02T12:55:01.916Z,638.419
2024-02-02T13:00:01.877Z,281.646
2024-02-02T13:05:02.061Z,189.151
2024-02-02T13:10:02.105Z,188.525
2024-02-02T13:15:02.222Z,203.82500000000002
2024-02-02T13:20:01.901Z,213.845
2024-02-02T13:25:01.890Z,318.41700000000003
2024-02-02T13:30:01.972Z,492.017
2024-02-02T13:35:02.134Z,2486.012
2024-02-02T13:40:02.075Z,2407.43
2024-02-02T13:45:02.188Z,2617.429
2024-02-02T13:50:02.190Z,3643.031
2024-02-02T13:55:02.093Z,3918.425
2024-02-02T14:00:02.147Z,3759.666
2024-02-02T14:05:02.112Z,5020.719
2024-02-02T14:10:02.182Z,3835.6420000000003
2024-02-02T14:15:02.155Z,637.011
2024-02-02T14:20:01.939Z,624.29
2024-02-02T14:25:01.976Z,916.237
2024-02-02T14:30:02.085Z,551.545
2024-02-02T14:40:02.466Z,1675.326
2024-02-02T14:45:01.963Z,1217.467
2024-02-02T14:50:01.945Z,2744.219
2024-02-02T14:55:01.989Z,2750.268
2024-02-02T15:00:02.036Z,2545.885
2024-02-02T15:05:02.720Z,2917.329
2024-02-02T15:10:02.094Z,3529.735
2024-02-02T15:15:02.089Z,1194.9
2024-02-02T15:20:06.923Z,564.444
2024-02-02T15:25:02.072Z,706.82
2024-02-02T15:30:02.184Z,759.418
2024-02-02T15:35:02.164Z,548.835
2024-02-02T15:40:02.616Z,654.874
2024-02-02T15:45:02.121Z,514.873
2024-02-02T15:50:02.273Z,621.134
2024-02-02T15:55:02.301Z,704.771
2024-02-02T16:00:02.211Z,696.136
2024-02-02T16:05:02.194Z,2217.19
2024-02-02T16:10:02.181Z,3293.695
2024-02-02T16:15:02.258Z,3118.571
2024-02-02T16:20:02.122Z,2989.006
2024-02-02T16:25:02.064Z,425.855
2024-02-02T16:30:02.167Z,430.555
2024-02-02T16:35:02.178Z,987.908
2024-02-02T16:40:02.107Z,862.514
2024-02-02T16:45:02.166Z,2194.982
2024-02-02T16:50:02.296Z,1642.238
2024-02-02T16:55:02.069Z,1899.237
2024-02-02T17:00:02.115Z,1661.5040000000001
2024-02-02T17:05:02.183Z,672.977
2024-02-02T17:10:02.191Z,3456.953
2024-02-02T17:15:02.244Z,5008.781
2024-02-02T17:20:04.178Z,2690.203
2024-02-02T17:25:02.099Z,2752.94
2024-02-02T17:30:02.284Z,2919.704
2024-02-02T17:35:02.220Z,3266.852
2024-02-02T17:40:02.365Z,1107.2350000000001
2024-02-02T17:45:02.204Z,555.38
2024-02-02T17:50:03.532Z,528.447
2024-02-02T17:55:02.211Z,519.5840000000001
2024-02-02T18:00:02.293Z,821.5070000000001
2024-02-02T18:05:02.211Z,607.9060000000001
2024-02-02T18:10:02.349Z,513.7040000000001
2024-02-02T18:15:02.425Z,534.455
2024-02-02T18:20:02.276Z,610.152
2024-02-02T18:25:02.336Z,606.1
2024-02-02T18:30:02.191Z,558.794
2024-02-02T18:35:02.164Z,1284.635
2024-02-02T18:40:02.388Z,2635.262
2024-02-02T18:45:02.297Z,2685.404
2024-02-02T18:50:02.201Z,2829.933
2024-02-02T18:55:02.264Z,689.875
2024-02-02T19:00:02.258Z,818.501
2024-02-02T19:05:02.275Z,2689.569
2024-02-02T19:10:02.309Z,6863.884
2024-02-02T19:15:02.475Z,8123.671
2024-02-02T19:20:02.256Z,6758.446
2024-02-02T19:25:02.168Z,3603.351
2024-02-02T19:30:04.330Z,3430.734
2024-02-02T19:35:02.264Z,1608.855
2024-02-02T19:40:02.377Z,2225.993
2024-02-02T19:45:02.377Z,3784.112
2024-02-02T19:50:02.530Z,3596.349
2024-02-02T19:55:05.098Z,3828.512
2024-02-02T20:00:02.437Z,4293.747
2024-02-02T20:05:02.228Z,2030.135
2024-02-02T20:10:02.523Z,1477.704
2024-02-02T20:15:02.494Z,1604.143
2024-02-02T20:20:02.426Z,1378.971
2024-02-02T20:25:02.425Z,1370.705
2024-02-02T20:30:02.539Z,1427.559
2024-02-02T20:35:02.618Z,1751.1290000000001
2024-02-02T20:40:02.802Z,1793.2150000000001
2024-02-02T20:45:04.489Z,1836.314
2024-02-02T20:50:02.365Z,1395.915
2024-02-02T20:55:02.319Z,1418.667
2024-02-02T21:00:02.329Z,1388.231
2024-02-02T21:05:02.385Z,3516.072
2024-02-02T21:10:02.563Z,3554.271
2024-02-02T21:15:02.369Z,3503.118
2024-02-02T21:20:02.412Z,3767.447
2024-02-02T21:25:02.316Z,3465.029
2024-02-02T21:30:02.454Z,1482.914
2024-02-02T21:35:02.653Z,1426.228
2024-02-02T21:40:02.416Z,1376.9370000000001
2024-02-02T21:45:02.356Z,1452.468
2024-02-02T21:50:02.680Z,1862.881
2024-02-02T21:55:02.370Z,2218.968
2024-02-02T22:00:02.393Z,1993.019
2024-02-02T22:05:02.358Z,1544.807
2024-02-02T22:10:02.432Z,1523.328
2024-02-02T22:15:02.450Z,1613.31
2024-02-02T22:20:02.468Z,1581.093
2024-02-02T22:25:02.503Z,2149.815
2024-02-02T22:30:02.449Z,3091.503
2024-02-02T22:35:02.640Z,2935.467
2024-02-02T22:40:02.689Z,2959.661
2024-02-02T22:45:02.456Z,3419.386
2024-02-02T22:50:02.500Z,1377.346
2024-02-02T22:55:02.378Z,693.023
2024-02-02T23:00:05.627Z,686.248
2024-02-02T23:05:02.386Z,737.84
2024-02-02T23:10:02.442Z,804.352
2024-02-02T23:15:02.410Z,784.777
2024-02-02T23:20:02.496Z,723.913
2024-02-02T23:25:02.373Z,677.269
2024-02-02T23:30:02.404Z,674.738
2024-02-02T23:35:02.476Z,644.6610000000001
2024-02-02T23:40:02.510Z,658.255
2024-02-02T23:45:02.495Z,660.237
2024-02-02T23:50:02.593Z,1325.832
2024-02-02T23:55:02.410Z,2971.294
